PrentiSS Brown — WDE6848 — position and weather

sailwx.info

Track history (hours):
 
Tides and Currents Weather Stations Pressure Air Temp Water Temp Dewpoint Dewpoint Depression Visibility Wind Speed Wind Dir Waves Ship Positions

PrentiSS Brown

Owner: Port City Marine Services Inc, Muskegon, MI. More information available from US FCC via Universal Licensing System and Coast Guard Vessel Documentation Center.

Last reported at 2014-Nov-27 10:34 UTC. Time now 2014-Nov-28 18:13 UTC.
Position N 45°39' W 086°09'.

; draft 5.5 m.

Type: Other ship. MMSI: 366922280.

Date/timePositionNaut miles runAvg speedWind from/ knotsBaromVisibWave heightAir tempDewpointWater temp
2014-Nov-27 10:34N 45°39' W 086°09'8 7.9
2014-Nov-27 09:33N 45°33' W 086°03'8 8.3
2014-Nov-27 08:34N 45°31' W 085°52'9 9.3
2014-Nov-27 07:33N 45°31' W 085°38'9 9.4
2014-Nov-27 06:34N 45°25' W 085°28'9 9.3
2014-Nov-27 05:33N 45°20' W 085°17'1 0.6
2014-Nov-27 04:33N 45°19' W 085°18'0 0.0
2014-Nov-27 03:33N 45°19' W 085°18'0 0.0
2014-Nov-27 02:34N 45°19' W 085°18'0 0.0
2014-Nov-27 01:33N 45°19' W 085°18'0 0.0
2014-Nov-27 00:34N 45°19' W 085°18'0 0.0
2014-Nov-26 23:34N 45°19' W 085°18'2 2.3
2014-Nov-26 22:34N 45°20' W 085°21'10 9.8
2014-Nov-26 21:34N 45°15' W 085°33'10 9.6
2014-Nov-26 20:33N 45°09' W 085°44'  
2014-Nov-24 12:33N 45°12' W 086°01'9 9.0
2014-Nov-24 11:33N 45°12' W 085°49'9 9.1
2014-Nov-24 10:33N 45°14' W 085°36'9 9.2
2014-Nov-24 09:33N 45°19' W 085°25'5 5.1
2014-Nov-24 08:33N 45°19' W 085°17'0 0.3
2014-Nov-24 07:33N 45°19' W 085°18'0 0.0
2014-Nov-24 06:33N 45°19' W 085°18'0 0.0
2014-Nov-24 05:33N 45°19' W 085°18'0 0.0
2014-Nov-24 04:33N 45°19' W 085°18'0 0.0
2014-Nov-24 03:33N 45°19' W 085°18'0 0.0
2014-Nov-24 02:33N 45°19' W 085°18'0 0.0
2014-Nov-24 01:33N 45°19' W 085°18'0 0.0
2014-Nov-24 00:33N 45°19' W 085°18'0 0.0
2014-Nov-23 23:33N 45°19' W 085°18'0 0.0
2014-Nov-23 22:33N 45°19' W 085°18'2 1.5
2014-Nov-23 21:33N 45°20' W 085°19'10 9.8
2014-Nov-23 20:33N 45°16' W 085°32'10 9.8
2014-Nov-23 19:33N 45°11' W 085°44'9 7.9
2014-Nov-23 18:28N 45°08' W 085°55'17 8.8
2014-Nov-23 16:33N 45°23' W 086°08'  
Track history (hours):
 
Tides and Currents Weather Stations Pressure Air Temp Water Temp Dewpoint Dewpoint Depression Visibility Wind Speed Wind Dir Waves Ship Positions

PrentiSS Brown

Owner: Port City Marine Services Inc, Muskegon, MI. More information available from US FCC via Universal Licensing System and Coast Guard Vessel Documentation Center.

Last reported at 2014-Nov-27 10:34 UTC. Time now 2014-Nov-28 18:13 UTC.
Position N 45°39' W 086°09'.

; draft 5.5 m.

Type: Other ship. MMSI: 366922280.

Date/timePositionNaut miles runAvg speedWind from/ knotsBaromVisibWave heightAir tempDewpointWater temp
2014-Nov-27 10:34N 45°39' W 086°09'8 7.9
2014-Nov-27 09:33N 45°33' W 086°03'8 8.3
2014-Nov-27 08:34N 45°31' W 085°52'9 9.3
2014-Nov-27 07:33N 45°31' W 085°38'9 9.4
2014-Nov-27 06:34N 45°25' W 085°28'9 9.3
2014-Nov-27 05:33N 45°20' W 085°17'1 0.6
2014-Nov-27 04:33N 45°19' W 085°18'0 0.0
2014-Nov-27 03:33N 45°19' W 085°18'0 0.0
2014-Nov-27 02:34N 45°19' W 085°18'0 0.0
2014-Nov-27 01:33N 45°19' W 085°18'0 0.0
2014-Nov-27 00:34N 45°19' W 085°18'0 0.0
2014-Nov-26 23:34N 45°19' W 085°18'2 2.3
2014-Nov-26 22:34N 45°20' W 085°21'10 9.8
2014-Nov-26 21:34N 45°15' W 085°33'10 9.6
2014-Nov-26 20:33N 45°09' W 085°44'  
2014-Nov-24 12:33N 45°12' W 086°01'9 9.0
2014-Nov-24 11:33N 45°12' W 085°49'9 9.1
2014-Nov-24 10:33N 45°14' W 085°36'9 9.2
2014-Nov-24 09:33N 45°19' W 085°25'5 5.1
2014-Nov-24 08:33N 45°19' W 085°17'0 0.3
2014-Nov-24 07:33N 45°19' W 085°18'0 0.0
2014-Nov-24 06:33N 45°19' W 085°18'0 0.0
2014-Nov-24 05:33N 45°19' W 085°18'0 0.0
2014-Nov-24 04:33N 45°19' W 085°18'0 0.0
2014-Nov-24 03:33N 45°19' W 085°18'0 0.0
2014-Nov-24 02:33N 45°19' W 085°18'0 0.0
2014-Nov-24 01:33N 45°19' W 085°18'0 0.0
2014-Nov-24 00:33N 45°19' W 085°18'0 0.0
2014-Nov-23 23:33N 45°19' W 085°18'0 0.0
2014-Nov-23 22:33N 45°19' W 085°18'2 1.5
2014-Nov-23 21:33N 45°20' W 085°19'10 9.8
2014-Nov-23 20:33N 45°16' W 085°32'10 9.8
2014-Nov-23 19:33N 45°11' W 085°44'9 7.9
2014-Nov-23 18:28N 45°08' W 085°55'17 8.8
2014-Nov-23 16:33N 45°23' W 086°08'  

Dump ship's entire track history